createdAt,value
2022-09-09T00:01:03.282Z,16.19
2022-09-09T00:03:13.316Z,16.17
2022-09-09T00:05:20.470Z,16.18
2022-09-09T00:07:29.482Z,16.17
2022-09-09T00:09:39.065Z,16.14
2022-09-09T00:11:45.305Z,16.09
2022-09-09T00:13:50.131Z,16.07
2022-09-09T00:16:01.455Z,16.04
2022-09-09T00:18:15.343Z,16.02
2022-09-09T00:20:21.978Z,16.01
2022-09-09T00:22:26.351Z,16.00
2022-09-09T00:24:36.151Z,15.98
2022-09-09T00:26:44.116Z,15.95
2022-09-09T00:28:53.434Z,15.97
2022-09-09T00:30:58.297Z,15.93
2022-09-09T00:33:03.786Z,15.93
2022-09-09T00:35:19.017Z,15.95
2022-09-09T00:37:23.514Z,15.94
2022-09-09T00:39:32.064Z,15.94
2022-09-09T00:41:46.403Z,15.92
2022-09-09T00:44:00.484Z,15.92
2022-09-09T00:46:24.917Z,15.91
2022-09-09T00:48:33.858Z,15.87
2022-09-09T00:50:42.247Z,15.84
2022-09-09T00:52:49.789Z,15.82
2022-09-09T00:54:58.099Z,15.80
2022-09-09T00:57:11.494Z,15.79
2022-09-09T00:59:20.022Z,15.77
2022-09-09T01:01:24.573Z,15.78
2022-09-09T01:03:35.188Z,15.80
2022-09-09T01:05:43.298Z,15.82
2022-09-09T01:07:50.043Z,15.82
2022-09-09T01:09:57.553Z,15.82
2022-09-09T01:12:04.290Z,15.82
2022-09-09T01:14:21.499Z,15.86
2022-09-09T01:16:26.115Z,15.85
2022-09-09T01:18:31.400Z,15.86
2022-09-09T01:20:42.363Z,15.89
2022-09-09T01:22:55.705Z,15.89
2022-09-09T01:25:17.864Z,15.92
2022-09-09T01:27:50.361Z,15.93
2022-09-09T01:29:53.686Z,15.94
2022-09-09T01:31:59.541Z,15.94
2022-09-09T01:34:02.799Z,15.95
2022-09-09T01:36:09.138Z,15.95
2022-09-09T01:38:20.295Z,15.95
2022-09-09T01:40:26.240Z,15.94
2022-09-09T01:42:30.517Z,15.95
2022-09-09T01:44:36.164Z,15.97
2022-09-09T01:46:39.155Z,15.98
2022-09-09T01:48:47.698Z,15.96
2022-09-09T01:50:51.709Z,15.98
2022-09-09T01:52:58.544Z,15.97
2022-09-09T01:55:04.504Z,15.95
2022-09-09T01:57:18.460Z,15.97
2022-09-09T01:59:42.931Z,15.99
2022-09-09T02:01:57.893Z,16.01
2022-09-09T02:04:05.072Z,16.02
2022-09-09T02:06:16.185Z,16.03
2022-09-09T02:08:23.127Z,16.01
2022-09-09T02:10:35.342Z,16.00
2022-09-09T02:12:55.577Z,15.94
2022-09-09T02:15:06.010Z,15.95
2022-09-09T02:17:23.365Z,15.93
2022-09-09T02:19:35.019Z,15.91
2022-09-09T02:21:46.173Z,15.90
2022-09-09T02:23:50.385Z,15.85
2022-09-09T02:25:54.146Z,15.83
2022-09-09T02:28:00.261Z,15.86
2022-09-09T02:30:06.849Z,15.86
2022-09-09T02:32:23.922Z,15.87
2022-09-09T02:34:28.855Z,15.85
2022-09-09T02:36:36.196Z,15.84
2022-09-09T02:38:44.088Z,15.83
2022-09-09T02:40:50.172Z,15.83
2022-09-09T02:42:53.354Z,15.80
2022-09-09T02:44:57.778Z,15.77
2022-09-09T02:47:14.600Z,15.76
2022-09-09T02:49:23.623Z,15.74
2022-09-09T02:51:30.051Z,15.70
2022-09-09T02:53:41.299Z,15.70
2022-09-09T02:55:49.564Z,15.67
2022-09-09T02:57:57.034Z,15.66
2022-09-09T03:00:01.325Z,15.63
2022-09-09T03:02:07.398Z,15.61
2022-09-09T03:04:11.634Z,15.60
2022-09-09T03:06:15.852Z,15.57
2022-09-09T03:08:21.783Z,15.53
2022-09-09T03:10:24.874Z,15.54
2022-09-09T03:12:27.857Z,15.54
2022-09-09T03:14:31.408Z,15.53
2022-09-09T03:16:35.347Z,15.52
2022-09-09T03:18:40.125Z,15.49
2022-09-09T03:20:44.473Z,15.45
2022-09-09T03:22:47.787Z,15.42
2022-09-09T03:24:51.127Z,15.36
2022-09-09T03:26:54.342Z,15.36
2022-09-09T03:28:57.619Z,15.33
2022-09-09T03:31:02.059Z,15.31
2022-09-09T03:33:07.800Z,15.36
2022-09-09T03:35:12.188Z,15.39
2022-09-09T03:37:15.234Z,15.42
2022-09-09T03:39:18.311Z,15.42
2022-09-09T03:41:24.705Z,15.45
2022-09-09T03:43:28.605Z,15.48
2022-09-09T03:45:31.623Z,15.51
2022-09-09T03:47:34.725Z,15.53
2022-09-09T03:49:41.873Z,15.53
2022-09-09T03:51:46.218Z,15.53
2022-09-09T03:53:50.703Z,15.51
2022-09-09T03:55:55.458Z,15.50
2022-09-09T03:58:01.283Z,15.49
2022-09-09T04:00:06.744Z,15.47
2022-09-09T04:02:19.872Z,15.46
2022-09-09T04:04:23.290Z,15.41
2022-09-09T04:06:26.874Z,15.40
2022-09-09T04:08:32.730Z,15.37
2022-09-09T04:10:38.121Z,15.34
2022-09-09T04:12:42.244Z,15.31
2022-09-09T04:14:45.234Z,15.28
2022-09-09T04:16:48.435Z,15.25
2022-09-09T04:18:53.882Z,15.24
2022-09-09T04:20:58.191Z,15.23
2022-09-09T04:23:03.395Z,15.20
2022-09-09T04:25:08.865Z,15.17
2022-09-09T04:27:12.051Z,15.12
2022-09-09T04:29:15.293Z,15.08
2022-09-09T04:31:21.163Z,15.06
2022-09-09T04:33:27.413Z,15.06
2022-09-09T04:35:30.926Z,15.06
2022-09-09T04:37:34.029Z,15.07
2022-09-09T04:39:37.663Z,15.06
2022-09-09T04:41:42.148Z,15.06
2022-09-09T04:43:46.977Z,15.04
2022-09-09T04:45:53.559Z,15.05
2022-09-09T04:47:59.412Z,15.03
2022-09-09T04:50:02.630Z,15.03
2022-09-09T04:52:06.350Z,15.00
2022-09-09T04:54:12.651Z,15.00
2022-09-09T04:56:19.047Z,15.01
2022-09-09T04:58:28.649Z,15.01
2022-09-09T05:00:31.861Z,15.01
2022-09-09T05:02:34.979Z,15.05
2022-09-09T05:04:38.226Z,15.05
2022-09-09T05:06:43.189Z,15.07
2022-09-09T05:08:47.335Z,15.10
2022-09-09T05:10:53.173Z,15.10
2022-09-09T05:12:57.143Z,15.12
2022-09-09T05:15:04.785Z,15.14
2022-09-09T05:17:08.361Z,15.18
2022-09-09T05:19:14.013Z,15.20
2022-09-09T05:21:29.357Z,15.28
2022-09-09T05:23:32.806Z,15.47
2022-09-09T05:25:36.252Z,15.71
2022-09-09T05:27:39.947Z,15.91
2022-09-09T05:29:45.500Z,16.04
2022-09-09T05:31:51.029Z,16.02
2022-09-09T05:33:57.129Z,15.94
2022-09-09T05:36:02.487Z,15.90
2022-09-09T05:38:05.514Z,15.91
2022-09-09T05:40:09.299Z,15.93
2022-09-09T05:42:12.653Z,15.92
2022-09-09T05:44:15.739Z,15.94
2022-09-09T05:46:21.517Z,15.98
2022-09-09T05:48:30.090Z,15.92
2022-09-09T05:50:33.283Z,16.00
2022-09-09T05:52:36.314Z,16.04
2022-09-09T05:54:41.168Z,16.05
2022-09-09T05:56:48.766Z,16.33
2022-09-09T05:58:54.910Z,16.66
2022-09-09T06:01:06.248Z,16.80
2022-09-09T06:03:12.386Z,16.77
2022-09-09T06:05:17.516Z,16.98
2022-09-09T06:07:21.065Z,17.09
2022-09-09T06:09:24.168Z,17.02
2022-09-09T06:11:32.079Z,16.94
2022-09-09T06:13:36.197Z,16.85
2022-09-09T06:15:39.875Z,16.80
2022-09-09T06:17:44.709Z,16.80
2022-09-09T06:19:49.116Z,16.84
2022-09-09T06:21:53.547Z,16.84
2022-09-09T06:24:00.843Z,16.79
2022-09-09T06:26:07.023Z,16.77
2022-09-09T06:28:11.347Z,16.79
2022-09-09T06:30:15.000Z,16.85
2022-09-09T06:32:18.494Z,17.01
2022-09-09T06:34:22.584Z,17.21
2022-09-09T06:36:31.103Z,17.26
2022-09-09T06:38:36.243Z,17.31
2022-09-09T06:40:39.454Z,17.41
2022-09-09T06:42:42.742Z,17.43
2022-09-09T06:45:07.776Z,17.59
2022-09-09T06:47:18.625Z,17.79
2022-09-09T06:49:22.813Z,17.88
2022-09-09T06:51:26.795Z,17.91
2022-09-09T06:53:30.947Z,17.94
2022-09-09T06:55:36.469Z,17.99
2022-09-09T06:57:41.139Z,18.00
2022-09-09T06:59:51.976Z,18.05
2022-09-09T07:01:56.735Z,18.11
2022-09-09T07:04:01.626Z,18.13
2022-09-09T07:06:05.229Z,18.21
2022-09-09T07:08:08.607Z,18.33
2022-09-09T07:10:11.936Z,18.38
2022-09-09T07:12:16.402Z,18.41
2022-09-09T07:14:28.138Z,18.47
2022-09-09T07:16:37.912Z,18.55
2022-09-09T07:18:41.495Z,18.60
2022-09-09T07:20:44.729Z,18.71
2022-09-09T07:22:47.795Z,18.80
2022-09-09T07:24:51.409Z,18.84
2022-09-09T07:26:55.476Z,18.97
2022-09-09T07:28:59.906Z,19.06
2022-09-09T07:31:04.489Z,19.23
2022-09-09T07:33:08.385Z,19.34
2022-09-09T07:35:11.410Z,19.65
2022-09-09T07:37:14.550Z,19.72
2022-09-09T07:39:19.951Z,19.72
2022-09-09T07:41:28.576Z,19.95
2022-09-09T07:43:32.339Z,20.04
2022-09-09T07:45:37.459Z,20.17
2022-09-09T07:47:42.380Z,20.36
2022-09-09T07:49:47.183Z,20.51
2022-09-09T07:51:53.307Z,20.80
2022-09-09T07:53:58.485Z,21.03
2022-09-09T07:56:05.442Z,21.17
2022-09-09T07:58:08.872Z,21.20
2022-09-09T08:00:16.604Z,21.22
2022-09-09T08:02:29.014Z,21.20
2022-09-09T08:04:32.438Z,21.17
2022-09-09T08:06:38.161Z,21.13
2022-09-09T08:08:44.121Z,21.21
2022-09-09T08:10:47.277Z,21.35
2022-09-09T08:13:07.847Z,21.40
2022-09-09T08:15:13.838Z,21.55
2022-09-09T08:17:17.564Z,21.61
2022-09-09T08:19:22.264Z,21.60
2022-09-09T08:21:28.112Z,21.60
2022-09-09T08:23:32.918Z,21.70
2022-09-09T08:25:36.513Z,22.10
2022-09-09T08:27:39.957Z,22.56
2022-09-09T08:29:43.478Z,22.89
2022-09-09T08:31:48.029Z,22.95
2022-09-09T08:33:53.294Z,22.84
2022-09-09T08:35:59.752Z,22.92
2022-09-09T08:38:04.658Z,23.03
2022-09-09T08:40:11.861Z,23.19
2022-09-09T08:42:34.905Z,23.29
2022-09-09T08:45:13.142Z,23.24
2022-09-09T08:47:21.943Z,23.45
2022-09-09T08:49:48.009Z,23.70
2022-09-09T08:51:53.265Z,23.89
2022-09-09T08:53:59.791Z,24.12
2022-09-09T08:56:06.856Z,24.25
2022-09-09T08:58:24.317Z,24.51
2022-09-09T09:00:35.703Z,24.71
2022-09-09T09:02:46.895Z,24.59
2022-09-09T09:05:01.219Z,24.33
2022-09-09T09:07:14.958Z,24.39
2022-09-09T09:09:24.693Z,24.39
2022-09-09T09:11:27.941Z,24.15
2022-09-09T09:13:43.004Z,24.01
2022-09-09T09:15:50.719Z,23.85
2022-09-09T09:17:54.346Z,23.93
2022-09-09T09:19:57.631Z,24.25
2022-09-09T09:22:04.709Z,24.50
2022-09-09T09:24:21.232Z,24.33
2022-09-09T09:26:28.449Z,24.34
2022-09-09T09:28:33.741Z,24.63
2022-09-09T09:30:46.890Z,24.80
2022-09-09T09:32:54.230Z,25.02
2022-09-09T09:34:58.726Z,24.86
2022-09-09T09:37:03.746Z,24.95
2022-09-09T09:41:38.204Z,24.91
2022-09-09T09:43:43.415Z,24.83
2022-09-09T09:46:13.874Z,24.68
2022-09-09T09:48:15.943Z,24.36
2022-09-09T09:50:20.755Z,23.94
2022-09-09T09:52:27.556Z,23.70
2022-09-09T09:54:36.985Z,23.61
2022-09-09T09:56:40.595Z,23.55
2022-09-09T09:58:52.533Z,23.41
2022-09-09T10:01:00.895Z,23.35
2022-09-09T10:03:17.952Z,23.28
2022-09-09T10:05:26.908Z,23.23
2022-09-09T10:07:34.890Z,23.14
2022-09-09T10:09:40.985Z,23.01
2022-09-09T10:11:48.762Z,23.14
2022-09-09T10:13:58.764Z,23.27
2022-09-09T10:16:14.483Z,23.38
2022-09-09T10:18:47.617Z,23.66
2022-09-09T10:20:56.603Z,24.02
2022-09-09T10:23:08.622Z,24.32
2022-09-09T10:25:40.001Z,24.54
2022-09-09T10:27:55.500Z,24.62
2022-09-09T10:30:09.985Z,24.64
2022-09-09T10:32:29.331Z,24.63
2022-09-09T10:34:50.995Z,24.79
2022-09-09T10:36:54.143Z,24.85
2022-09-09T10:39:01.386Z,24.88
2022-09-09T10:41:24.714Z,24.98
2022-09-09T10:43:41.278Z,25.08
2022-09-09T10:45:52.838Z,25.10
2022-09-09T10:48:08.870Z,25.10
2022-09-09T10:53:11.168Z,25.26
2022-09-09T10:55:16.701Z,25.36
2022-09-09T10:57:29.365Z,25.48
2022-09-09T10:59:36.064Z,25.67
2022-09-09T11:01:45.942Z,25.52
2022-09-09T11:03:54.161Z,24.95
2022-09-09T11:05:59.812Z,24.92
2022-09-09T11:08:05.421Z,24.91
2022-09-09T11:10:18.884Z,24.72
2022-09-09T11:12:24.942Z,24.62
2022-09-09T11:14:36.867Z,24.40
2022-09-09T11:16:43.823Z,24.22
2022-09-09T11:18:48.735Z,24.06
2022-09-09T11:20:56.778Z,23.93
2022-09-09T11:23:03.667Z,23.78
2022-09-09T11:25:10.593Z,23.62
2022-09-09T11:27:17.167Z,23.58
2022-09-09T11:29:53.570Z,23.44
2022-09-09T11:32:07.511Z,23.29
2022-09-09T11:34:20.069Z,23.30
2022-09-09T11:36:46.908Z,23.28
2022-09-09T11:38:52.763Z,23.25
2022-09-09T11:40:58.905Z,23.20
2022-09-09T11:43:07.629Z,23.07
2022-09-09T11:45:13.939Z,22.83
2022-09-09T11:47:30.282Z,22.39
2022-09-09T11:49:44.408Z,21.84
2022-09-09T11:51:47.504Z,21.47
2022-09-09T11:53:52.310Z,21.11
2022-09-09T11:56:10.133Z,20.80
2022-09-09T11:58:19.076Z,20.62
2022-09-09T12:00:35.964Z,20.49
2022-09-09T12:02:50.643Z,20.38
2022-09-09T12:04:59.075Z,20.32
2022-09-09T12:07:05.531Z,20.28
2022-09-09T12:09:11.956Z,20.29
2022-09-09T12:11:26.487Z,20.27
2022-09-09T12:13:29.714Z,20.24
2022-09-09T12:15:32.843Z,20.18
2022-09-09T12:17:45.780Z,20.23
2022-09-09T12:19:49.145Z,20.32
2022-09-09T12:21:59.153Z,20.41
2022-09-09T12:24:06.553Z,20.46
2022-09-09T12:26:30.509Z,20.52
2022-09-09T12:28:51.680Z,20.63
2022-09-09T12:30:59.867Z,20.82
2022-09-09T12:33:10.996Z,21.02
2022-09-09T12:35:17.105Z,21.18
2022-09-09T12:37:29.667Z,21.24
2022-09-09T12:39:36.744Z,21.30
2022-09-09T12:41:39.900Z,21.29
2022-09-09T12:43:42.916Z,21.30
2022-09-09T12:45:46.369Z,21.36
2022-09-09T12:47:51.939Z,21.37
2022-09-09T12:49:57.464Z,21.41
2022-09-09T12:52:01.265Z,21.45
2022-09-09T12:54:05.761Z,21.43
2022-09-09T12:56:11.083Z,21.44
2022-09-09T12:58:15.955Z,21.47
2022-09-09T13:00:21.551Z,21.49
2022-09-09T13:02:25.856Z,21.58
2022-09-09T13:04:29.248Z,21.61
2022-09-09T13:06:35.145Z,21.53
2022-09-09T13:08:38.301Z,21.43
2022-09-09T13:10:53.650Z,21.46
2022-09-09T13:12:59.141Z,21.48
2022-09-09T13:15:03.317Z,21.50
2022-09-09T13:17:08.071Z,21.51
2022-09-09T13:19:18.026Z,21.45
2022-09-09T13:21:21.334Z,21.34
2022-09-09T13:23:28.674Z,21.36
2022-09-09T13:25:32.010Z,21.41
2022-09-09T13:27:39.615Z,21.56
2022-09-09T13:29:53.197Z,21.73
2022-09-09T13:31:56.803Z,21.83
2022-09-09T13:33:59.814Z,21.91
2022-09-09T13:36:05.444Z,21.86
2022-09-09T13:38:11.453Z,21.80
2022-09-09T13:40:20.108Z,21.74
2022-09-09T13:42:28.891Z,21.68
2022-09-09T13:44:33.930Z,21.68
2022-09-09T13:46:38.645Z,21.68
2022-09-09T13:48:41.999Z,21.67
2022-09-09T13:50:56.135Z,21.73
2022-09-09T13:53:00.933Z,21.76
2022-09-09T13:55:04.052Z,21.76
2022-09-09T13:57:18.034Z,21.86
2022-09-09T13:59:22.368Z,21.94
2022-09-09T14:01:29.394Z,22.06
2022-09-09T14:03:32.862Z,22.16
2022-09-09T14:05:36.056Z,22.20
2022-09-09T14:07:39.525Z,22.21
2022-09-09T14:09:42.896Z,22.23
2022-09-09T14:11:47.407Z,22.28
2022-09-09T14:13:51.927Z,22.34
2022-09-09T14:15:54.913Z,22.38
2022-09-09T14:18:00.092Z,22.43
2022-09-09T14:20:03.560Z,22.44
2022-09-09T14:22:06.704Z,22.43
2022-09-09T14:24:09.667Z,22.42
2022-09-09T14:26:12.695Z,22.42
2022-09-09T14:28:16.180Z,22.42
2022-09-09T14:30:20.656Z,22.48
2022-09-09T14:32:23.633Z,22.55
2022-09-09T14:34:26.669Z,22.63
2022-09-09T14:36:29.630Z,22.77
2022-09-09T14:38:34.580Z,22.87
2022-09-09T14:40:38.750Z,22.91
2022-09-09T14:42:42.160Z,22.93
2022-09-09T14:44:45.344Z,22.91
2022-09-09T14:46:51.178Z,22.91
2022-09-09T14:50:57.792Z,22.90
2022-09-09T14:53:00.792Z,23.01
2022-09-09T14:55:03.845Z,23.15
2022-09-09T14:57:06.912Z,23.25
2022-09-09T14:59:09.899Z,23.28
2022-09-09T15:01:14.699Z,23.32
2022-09-09T15:03:19.167Z,23.29
2022-09-09T15:05:22.405Z,23.21
2022-09-09T15:07:25.405Z,23.19
2022-09-09T15:09:28.409Z,23.19
2022-09-09T15:11:33.060Z,23.18
2022-09-09T15:13:38.170Z,23.22
2022-09-09T15:15:42.549Z,23.26
2022-09-09T15:17:45.565Z,23.28
2022-09-09T15:19:51.107Z,23.32
2022-09-09T15:21:54.159Z,23.31
2022-09-09T15:23:57.567Z,23.32
2022-09-09T15:26:00.609Z,23.31
2022-09-09T15:28:03.633Z,23.29
2022-09-09T15:30:07.929Z,23.24
2022-09-09T15:32:11.104Z,23.19
2022-09-09T15:34:14.698Z,23.14
2022-09-09T15:36:21.908Z,23.05
2022-09-09T15:38:26.340Z,22.98
2022-09-09T15:40:29.591Z,22.88
2022-09-09T15:42:32.621Z,22.80
2022-09-09T15:44:40.878Z,22.75
2022-09-09T15:46:45.503Z,22.71
2022-09-09T15:48:52.324Z,22.72
2022-09-09T15:51:10.972Z,22.72
2022-09-09T15:53:23.825Z,22.70
2022-09-09T15:55:26.836Z,22.67
2022-09-09T15:57:29.856Z,22.60
2022-09-09T15:59:34.412Z,22.59
2022-09-09T16:01:40.473Z,22.58
2022-09-09T16:03:45.681Z,22.57
2022-09-09T16:05:52.951Z,22.49
2022-09-09T16:07:55.992Z,22.46
2022-09-09T16:10:00.874Z,22.45
2022-09-09T16:12:08.773Z,22.41
2022-09-09T16:14:11.979Z,22.37
2022-09-09T16:16:16.752Z,22.33
2022-09-09T16:18:21.492Z,22.31
2022-09-09T16:20:26.614Z,22.26
2022-09-09T16:22:29.609Z,22.24
2022-09-09T16:24:33.370Z,22.20
2022-09-09T16:26:39.626Z,22.15
2022-09-09T16:28:43.159Z,22.12
2022-09-09T16:30:46.307Z,22.10
2022-09-09T16:32:50.234Z,22.05
2022-09-09T16:34:53.371Z,22.04
2022-09-09T16:36:57.143Z,22.02
2022-09-09T16:39:01.696Z,21.99
2022-09-09T16:41:06.730Z,21.96
2022-09-09T16:43:12.252Z,21.91
2022-09-09T16:45:15.736Z,21.87
2022-09-09T16:47:19.021Z,21.77
2022-09-09T16:49:22.417Z,21.57
2022-09-09T16:51:27.244Z,21.42
2022-09-09T16:53:30.374Z,21.35
2022-09-09T16:55:33.439Z,21.19
2022-09-09T16:57:36.594Z,21.12
2022-09-09T16:59:41.306Z,21.04
2022-09-09T17:01:45.666Z,20.95
2022-09-09T17:03:48.678Z,20.89
2022-09-09T17:05:51.886Z,20.80
2022-09-09T17:07:56.838Z,20.70
2022-09-09T17:09:59.834Z,20.62
2022-09-09T17:12:03.256Z,20.54
2022-09-09T17:14:07.540Z,20.49
2022-09-09T17:16:12.910Z,20.42
2022-09-09T17:18:17.191Z,20.34
2022-09-09T17:20:20.821Z,20.29
2022-09-09T17:22:24.113Z,20.17
2022-09-09T17:24:27.813Z,20.05
2022-09-09T17:26:34.028Z,19.94
2022-09-09T17:28:37.745Z,19.80
2022-09-09T17:30:41.520Z,19.74
2022-09-09T17:32:46.041Z,19.66
2022-09-09T17:34:49.173Z,19.62
2022-09-09T17:36:53.081Z,19.59
2022-09-09T17:38:56.441Z,19.54
2022-09-09T17:41:07.028Z,19.44
2022-09-09T17:43:10.089Z,19.38
2022-09-09T17:45:13.221Z,19.33
2022-09-09T17:47:16.301Z,19.29
2022-09-09T17:49:20.996Z,19.22
2022-09-09T17:51:28.251Z,19.20
2022-09-09T17:53:31.855Z,19.19
2022-09-09T17:55:35.086Z,19.15
2022-09-09T17:57:38.274Z,19.10
2022-09-09T17:59:42.019Z,19.07
2022-09-09T18:01:46.681Z,19.02
2022-09-09T18:03:51.634Z,18.90
2022-09-09T18:06:01.855Z,18.80
2022-09-09T18:08:04.925Z,18.76
2022-09-09T18:10:08.425Z,18.71
2022-09-09T18:12:11.529Z,18.66
2022-09-09T18:14:17.828Z,18.60
2022-09-09T18:16:22.363Z,18.57
2022-09-09T18:18:25.604Z,18.55
2022-09-09T18:20:28.612Z,18.51
2022-09-09T18:22:33.012Z,18.46
2022-09-09T18:24:37.084Z,18.47
2022-09-09T18:26:41.470Z,18.48
2022-09-09T18:28:48.372Z,18.48
2022-09-09T18:30:52.574Z,18.49
2022-09-09T18:32:56.050Z,18.45
2022-09-09T18:34:59.425Z,18.40
2022-09-09T18:37:02.545Z,18.37
2022-09-09T18:39:08.813Z,18.32
2022-09-09T18:41:16.075Z,18.23
2022-09-09T18:43:19.138Z,18.16
2022-09-09T18:45:22.639Z,18.16
2022-09-09T18:47:25.755Z,18.11
2022-09-09T18:49:33.257Z,18.10
2022-09-09T18:51:39.325Z,18.07
2022-09-09T18:53:42.416Z,18.04
2022-09-09T18:55:46.751Z,18.01
2022-09-09T18:57:50.699Z,17.98
2022-09-09T18:59:55.360Z,17.98
2022-09-09T19:01:58.525Z,17.98
2022-09-09T19:04:01.666Z,17.96
2022-09-09T19:06:07.740Z,17.92
2022-09-09T19:08:10.861Z,17.89
2022-09-09T19:10:14.792Z,17.86
2022-09-09T19:12:19.550Z,17.83
2022-09-09T19:14:22.965Z,17.84
2022-09-09T19:16:29.279Z,17.86
2022-09-09T19:18:32.450Z,17.82
2022-09-09T19:20:35.635Z,17.82
2022-09-09T19:22:38.742Z,17.82
2022-09-09T19:24:42.203Z,17.82
2022-09-09T19:26:46.785Z,17.75
2022-09-09T19:28:51.853Z,17.68
2022-09-09T19:30:56.672Z,17.65
2022-09-09T19:33:00.985Z,17.66
2022-09-09T19:35:04.457Z,17.67
2022-09-09T19:37:07.789Z,17.65
2022-09-09T19:39:11.589Z,17.66
2022-09-09T19:41:16.212Z,17.67
2022-09-09T19:43:19.238Z,17.68
2022-09-09T19:45:23.642Z,17.66
2022-09-09T19:47:26.767Z,17.63
2022-09-09T19:49:31.152Z,17.55
2022-09-09T19:51:35.665Z,17.52
2022-09-09T19:53:40.399Z,17.50
2022-09-09T19:55:43.417Z,17.48
2022-09-09T19:57:46.532Z,17.45
2022-09-09T19:59:49.743Z,17.41
2022-09-09T20:01:57.059Z,17.39
2022-09-09T20:04:02.954Z,17.35
2022-09-09T20:06:06.614Z,17.34
2022-09-09T20:08:09.767Z,17.31
2022-09-09T20:10:12.900Z,17.26
2022-09-09T20:12:16.865Z,17.22
2022-09-09T20:14:20.321Z,17.23
2022-09-09T20:16:25.107Z,17.21
2022-09-09T20:18:32.303Z,17.20
2022-09-09T20:20:35.759Z,17.19
2022-09-09T20:22:38.748Z,17.18
2022-09-09T20:24:44.319Z,17.17
2022-09-09T20:26:48.333Z,17.16
2022-09-09T20:28:53.091Z,17.16
2022-09-09T20:30:56.457Z,17.11
2022-09-09T20:33:00.136Z,17.08
2022-09-09T20:35:05.026Z,17.06
2022-09-09T20:37:07.982Z,17.05
2022-09-09T20:39:13.169Z,17.03
2022-09-09T20:41:18.697Z,17.04
2022-09-09T20:43:21.760Z,17.04
2022-09-09T20:45:24.872Z,17.02
2022-09-09T20:47:30.870Z,17.00
2022-09-09T20:49:35.212Z,16.98
2022-09-09T20:51:39.960Z,16.98
2022-09-09T20:53:43.173Z,16.98
2022-09-09T20:55:50.686Z,16.96
2022-09-09T20:57:56.683Z,16.94
2022-09-09T21:00:00.139Z,16.94
2022-09-09T21:02:03.616Z,16.91
2022-09-09T21:04:07.173Z,16.87
2022-09-09T21:06:10.401Z,16.85
2022-09-09T21:08:16.691Z,16.83
2022-09-09T21:10:21.108Z,16.80
2022-09-09T21:12:24.547Z,16.78
2022-09-09T21:14:28.310Z,16.77
2022-09-09T21:16:31.681Z,16.75
2022-09-09T21:18:35.333Z,16.69
2022-09-09T21:20:38.587Z,16.68
2022-09-09T21:22:41.683Z,16.64
2022-09-09T21:24:46.739Z,16.60
2022-09-09T21:26:50.366Z,16.55
2022-09-09T21:28:53.674Z,16.53
2022-09-09T21:30:58.523Z,16.50
2022-09-09T21:33:05.138Z,16.50
2022-09-09T21:35:09.189Z,16.50
2022-09-09T21:37:12.375Z,16.44
2022-09-09T21:39:15.855Z,16.44
2022-09-09T21:41:20.547Z,16.44
2022-09-09T21:43:24.665Z,16.42
2022-09-09T21:45:28.115Z,16.41
2022-09-09T21:47:31.204Z,16.41
2022-09-09T21:49:34.192Z,16.41
2022-09-09T21:51:37.273Z,16.40
2022-09-09T21:53:40.290Z,16.34
2022-09-09T21:55:47.690Z,16.29
2022-09-09T21:57:52.326Z,16.25
2022-09-09T21:59:55.465Z,16.26
2022-09-09T22:01:59.339Z,16.24
2022-09-09T22:04:22.983Z,16.21
2022-09-09T22:06:26.152Z,16.20
2022-09-09T22:08:30.737Z,16.20
2022-09-09T22:10:33.821Z,16.20
2022-09-09T22:12:37.142Z,16.19
2022-09-09T22:14:41.621Z,16.14
2022-09-09T22:16:44.746Z,16.09
2022-09-09T22:18:51.921Z,16.08
2022-09-09T22:20:55.303Z,16.08
2022-09-09T22:22:58.325Z,16.08
2022-09-09T22:25:01.500Z,16.11
2022-09-09T22:27:04.893Z,16.12
2022-09-09T22:29:08.036Z,16.14
2022-09-09T22:31:12.443Z,16.16
2022-09-09T22:33:15.618Z,16.16
2022-09-09T22:35:18.715Z,16.16
2022-09-09T22:37:22.633Z,16.14
2022-09-09T22:39:25.963Z,16.15
2022-09-09T22:41:29.999Z,16.14
2022-09-09T22:43:33.922Z,16.12
2022-09-09T22:45:37.308Z,16.08
2022-09-09T22:47:42.379Z,16.07
2022-09-09T22:49:46.399Z,16.06
2022-09-09T22:51:50.708Z,16.06
2022-09-09T22:53:54.373Z,16.06
2022-09-09T22:55:59.528Z,16.04
2022-09-09T22:58:02.901Z,16.03
2022-09-09T23:00:09.819Z,16.03
2022-09-09T23:02:13.034Z,16.02
2022-09-09T23:04:18.440Z,16.01
2022-09-09T23:06:23.225Z,16.04
2022-09-09T23:08:27.544Z,16.07
2022-09-09T23:10:32.121Z,16.07
2022-09-09T23:12:35.146Z,16.08
2022-09-09T23:14:38.127Z,16.10
2022-09-09T23:16:44.264Z,16.12
2022-09-09T23:18:48.459Z,16.13
2022-09-09T23:21:00.359Z,16.12
2022-09-09T23:23:03.495Z,16.11
2022-09-09T23:25:07.653Z,16.11
2022-09-09T23:27:10.712Z,16.02
2022-09-09T23:29:14.784Z,15.93
2022-09-09T23:31:20.075Z,15.88
2022-09-09T23:33:23.193Z,15.90
2022-09-09T23:35:26.579Z,15.93
2022-09-09T23:37:31.443Z,15.96
2022-09-09T23:39:34.415Z,15.96
2022-09-09T23:41:40.160Z,15.94
2022-09-09T23:43:45.066Z,15.96
2022-09-09T23:45:50.318Z,15.99
2022-09-09T23:47:55.717Z,15.99
2022-09-09T23:49:59.189Z,16.02
2022-09-09T23:52:04.278Z,16.05
2022-09-09T23:54:10.037Z,16.08
2022-09-09T23:56:14.364Z,16.12
2022-09-09T23:58:17.340Z,16.12
